Time;durP1;ratioP1;P1;durP2;ratioP2;P2;SDS_P1;SDS_P2;PMS_P1;PMS_P2;Temp;Humidity;BMP_temperature;BMP_pressure;BME280_temperature;BME280_humidity;BME280_pressure;Samples;Min_cycle;Max_cycle;Signal;HPM_P1;HPM_P2
2022/08/28 00:02:08;;;;;;;5.38;1.85;;;;;;;17.72;69.84;101585.50;6320661;27;20246;-70
2022/08/28 00:05:31;;;;;;;5.43;2.13;;;;;;;17.48;71.10;101587.06;6328466;27;20313;-69
2022/08/28 00:08:52;;;;;;;2.30;1.60;;;;;;;17.51;70.61;101592.25;6310639;27;20317;-69
2022/08/28 00:12:13;;;;;;;3.85;2.85;;;;;;;17.30;71.58;101593.63;6323958;27;20563;-69
2022/08/28 00:15:37;;;;;;;5.40;1.83;;;;;;;17.43;70.97;101591.31;6324774;27;20647;-69
2022/08/28 00:19:00;;;;;;;3.15;1.95;;;;;;;17.65;70.19;101588.03;6325653;27;20221;-68
2022/08/28 00:22:22;;;;;;;3.67;1.95;;;;;;;17.63;70.28;101592.78;6314274;27;20234;-70
2022/08/28 00:25:43;;;;;;;4.10;1.55;;;;;;;17.30;71.21;101594.47;6324870;27;20669;-69
2022/08/28 00:29:05;;;;;;;5.50;2.60;;;;;;;17.57;70.33;101590.72;6318208;27;20225;-68
2022/08/28 00:32:27;;;;;;;4.63;2.13;;;;;;;17.72;70.06;101586.34;6319952;27;20623;-70
2022/08/28 00:35:49;;;;;;;9.05;2.50;;;;;;;17.44;70.72;101593.88;6325117;27;20322;-69
2022/08/28 00:39:11;;;;;;;5.05;1.98;;;;;;;17.36;70.92;101585.66;6314048;27;20324;-70
2022/08/28 00:42:33;;;;;;;6.88;2.72;;;;;;;17.39;70.59;101579.03;6318878;27;20226;-69
2022/08/28 00:45:54;;;;;;;3.85;2.35;;;;;;;17.44;70.68;101593.88;6321786;27;20694;-70
2022/08/28 00:49:25;;;;;;;3.63;1.65;;;;;;;17.44;70.65;101587.56;6323789;27;20274;-70
2022/08/28 00:52:47;;;;;;;7.07;1.58;;;;;;;17.31;71.09;101589.91;6316854;27;20226;-70
2022/08/28 00:56:12;;;;;;;3.72;2.63;;;;;;;17.25;70.98;101598.72;6315251;27;20252;-70
2022/08/28 00:59:35;;;;;;;5.63;2.17;;;;;;;17.17;71.32;101596.78;6320419;27;20225;-70
2022/08/28 01:02:56;;;;;;;2.78;1.83;;;;;;;17.17;71.25;101590.47;6290620;27;20230;-70
2022/08/28 01:06:19;;;;;;;6.10;2.28;;;;;;;17.10;71.50;101595.72;6313421;27;20506;-70
2022/08/28 01:09:44;;;;;;;6.07;2.10;;;;;;;17.16;71.84;101592.38;6318658;27;20516;-71
2022/08/28 01:13:06;;;;;;;5.07;2.60;;;;;;;16.97;71.85;101591.72;6308207;27;20603;-70
2022/08/28 01:16:28;;;;;;;3.53;1.52;;;;;;;16.86;72.66;101597.41;6320372;27;20222;-69
2022/08/28 01:19:55;;;;;;;3.55;1.75;;;;;;;17.07;72.21;101596.03;6319234;27;20543;-70
2022/08/28 01:23:24;;;;;;;7.10;2.63;;;;;;;17.14;71.63;101596.25;6317646;27;20255;-69
2022/08/28 01:26:47;;;;;;;6.40;2.45;;;;;;;17.00;71.89;101599.59;6302179;27;20229;-70
2022/08/28 01:30:09;;;;;;;2.75;2.05;;;;;;;17.20;71.54;101595.59;6277704;27;20309;-70
2022/08/28 01:33:30;;;;;;;3.50;2.10;;;;;;;17.08;71.90;101597.75;6325365;27;20229;-69
2022/08/28 01:36:52;;;;;;;4.45;2.25;;;;;;;17.03;71.59;101599.25;6323016;27;20336;-69
2022/08/28 01:40:16;;;;;;;4.53;2.70;;;;;;;17.01;72.20;101604.84;6295962;27;20349;-69
2022/08/28 01:43:39;;;;;;;4.97;2.17;;;;;;;17.01;71.78;101604.00;6316939;27;20224;-68
2022/08/28 01:47:00;;;;;;;4.30;3.25;;;;;;;16.88;72.35;101611.72;6309376;27;20226;-69
2022/08/28 01:50:21;;;;;;;7.40;2.90;;;;;;;16.78;72.69;101609.09;6308523;27;20229;-70
2022/08/28 01:53:43;;;;;;;6.55;2.83;;;;;;;16.88;72.65;101609.00;6322578;27;20324;-68
2022/08/28 01:57:04;;;;;;;5.25;2.60;;;;;;;17.12;71.97;101599.16;6295563;27;20738;-68
2022/08/28 02:00:27;;;;;;;13.77;2.00;;;;;;;16.95;72.22;101613.69;6310138;28;20751;-68
2022/08/28 02:03:51;;;;;;;2.20;1.95;;;;;;;16.86;72.19;101614.63;6319087;28;20225;-70
2022/08/28 02:07:13;;;;;;;9.77;2.13;;;;;;;16.85;72.78;101617.50;6287208;28;20284;-70
2022/08/28 02:10:36;;;;;;;4.25;2.40;;;;;;;16.96;72.71;101614.53;6308672;27;20719;-69
2022/08/28 02:13:58;;;;;;;2.75;2.05;;;;;;;16.98;72.11;101616.06;6322490;27;20230;-69
2022/08/28 02:17:20;;;;;;;5.63;1.83;;;;;;;16.92;71.82;101619.41;6325608;27;20229;-69
2022/08/28 02:20:42;;;;;;;4.05;2.25;;;;;;;16.92;72.34;101619.41;6326444;27;20260;-69
2022/08/28 02:24:03;;;;;;;6.00;1.45;;;;;;;17.07;71.86;101616.97;6330685;27;20229;-68
2022/08/28 02:27:24;;;;;;;5.22;2.08;;;;;;;17.13;71.35;101617.19;6319665;27;20376;-71
2022/08/28 02:30:45;;;;;;;6.55;2.30;;;;;;;16.99;72.02;101614.19;6317898;27;20297;-69
2022/08/28 02:34:09;;;;;;;6.65;2.10;;;;;;;16.82;72.60;101602.34;6320319;27;20221;-70
2022/08/28 02:37:30;;;;;;;2.95;2.00;;;;;;;16.80;72.17;101607.09;6325312;27;20300;-69
2022/08/28 02:40:52;;;;;;;8.75;2.90;;;;;;;16.71;73.15;101600.72;6324538;27;20253;-69
2022/08/28 02:44:12;;;;;;;4.18;1.33;;;;;;;16.82;72.29;101605.06;6332118;27;20225;-69
2022/08/28 02:47:34;;;;;;;8.25;2.13;;;;;;;16.96;71.95;101607.19;6323195;27;20668;-70
2022/08/28 02:50:59;;;;;;;4.50;2.05;;;;;;;17.07;71.61;101606.94;6318838;27;20685;-69
2022/08/28 02:54:20;;;;;;;2.53;1.80;;;;;;;17.04;71.37;101604.56;6322041;27;20224;-69
2022/08/28 02:57:41;;;;;;;8.57;2.35;;;;;;;16.93;71.85;101615.69;6318257;27;21197;-69
2022/08/28 03:01:04;;;;;;;8.23;2.25;;;;;;;16.68;72.47;101611.94;6318058;27;20225;-69
2022/08/28 03:04:25;;;;;;;3.42;1.98;;;;;;;16.56;72.84;101602.28;6327161;27;20225;-70
2022/08/28 03:07:47;;;;;;;3.25;2.53;;;;;;;16.67;72.94;101614.78;6322097;27;20258;-70
2022/08/28 03:11:09;;;;;;;8.20;1.70;;;;;;;16.52;72.90;101613.66;6306239;27;20229;-69
2022/08/28 03:14:29;;;;;;;2.83;1.67;;;;;;;16.49;73.20;101617.56;6320006;27;20225;-69
2022/08/28 03:17:50;;;;;;;3.33;2.33;;;;;;;16.46;73.53;101611.50;6319380;27;20230;-70
2022/08/28 03:21:11;;;;;;;9.02;2.30;;;;;;;16.60;72.70;101613.72;6297228;27;20238;-69
2022/08/28 03:24:36;;;;;;;4.72;2.67;;;;;;;16.61;72.65;101620.88;6289477;28;20553;-69
2022/08/28 03:27:57;;;;;;;4.32;2.30;;;;;;;16.64;72.82;101615.13;6299684;27;20218;-69
2022/08/28 03:31:21;;;;;;;12.32;2.90;;;;;;;16.69;72.34;101616.34;6315036;27;20237;-70
2022/08/28 03:34:42;;;;;;;4.22;2.17;;;;;;;16.62;72.65;101617.16;6321884;27;20256;-70
2022/08/28 03:38:04;;;;;;;4.97;2.58;;;;;;;16.69;72.19;101607.31;6327571;27;20538;-69
2022/08/28 03:41:29;;;;;;;3.35;1.67;;;;;;;16.82;71.97;101624.13;6320786;27;20233;-69
2022/08/28 03:44:50;;;;;;;5.85;2.20;;;;;;;16.81;71.75;101611.53;6322984;27;20497;-68
2022/08/28 03:48:11;;;;;;;4.80;2.45;;;;;;;16.79;71.72;101621.72;6314011;27;20233;-68
2022/08/28 03:51:33;;;;;;;5.03;2.22;;;;;;;16.71;72.15;101611.59;6318425;27;20222;-69
2022/08/28 03:54:55;;;;;;;6.03;2.33;;;;;;;16.64;71.97;101609.69;6301631;27;20230;-69
2022/08/28 03:58:19;;;;;;;4.53;1.95;;;;;;;16.64;72.36;101615.13;6314099;27;20245;-69
2022/08/28 04:01:41;;;;;;;3.38;1.70;;;;;;;16.65;71.91;101609.53;6306548;27;20675;-68
2022/08/28 04:05:02;;;;;;;1.90;1.38;;;;;;;16.43;72.90;101617.28;6310577;27;20241;-69
2022/08/28 04:08:23;;;;;;;3.10;1.65;;;;;;;16.44;72.64;101618.97;6310567;27;20541;-69
2022/08/28 04:11:43;;;;;;;4.93;1.90;;;;;;;16.35;73.58;101625.38;6320114;27;20235;-69
2022/08/28 04:15:08;;;;;;;2.88;2.15;;;;;;;16.45;72.93;101621.56;6319747;27;20498;-69
2022/08/28 04:18:30;;;;;;;4.13;1.50;;;;;;;16.28;73.11;101624.28;6310376;27;20235;-68
2022/08/28 04:21:51;;;;;;;4.45;2.05;;;;;;;16.33;73.19;101619.22;6319778;27;20242;-68
2022/08/28 04:25:12;;;;;;;5.70;1.60;;;;;;;16.27;73.57;101617.13;6315861;27;20611;-68
2022/08/28 04:28:33;;;;;;;5.07;2.13;;;;;;;16.38;73.42;101623.19;6320166;27;20227;-68
2022/08/28 04:31:56;;;;;;;13.23;2.05;;;;;;;16.44;73.09;101619.84;6316056;27;20608;-68
2022/08/28 04:35:17;;;;;;;3.63;1.90;;;;;;;16.51;72.29;101618.25;6324494;27;20228;-69
2022/08/28 04:38:39;;;;;;;5.05;2.70;;;;;;;16.62;72.36;101615.28;6321903;27;20261;-68
2022/08/28 04:42:00;;;;;;;4.25;3.65;;;;;;;16.56;72.54;101623.22;6320089;27;20225;-68
2022/08/28 04:45:21;;;;;;;8.27;1.77;;;;;;;16.43;72.44;101622.72;6315491;27;20607;-68
2022/08/28 04:48:44;;;;;;;4.43;1.90;;;;;;;16.34;73.19;101629.94;6323772;27;20328;-68
2022/08/28 04:52:05;;;;;;;5.40;3.28;;;;;;;16.52;72.50;101630.00;6320268;27;20230;-68
2022/08/28 04:55:27;;;;;;;3.80;1.73;;;;;;;16.66;72.65;101624.84;6307436;27;20222;-67
2022/08/28 04:58:47;;;;;;;3.33;2.10;;;;;;;16.56;72.37;101637.66;6312872;27;20894;-69
2022/08/28 05:02:08;;;;;;;4.45;2.05;;;;;;;16.62;72.47;101628.91;6301471;27;20784;-68
2022/08/28 05:05:30;;;;;;;3.78;1.30;;;;;;;16.65;72.09;101635.88;6310184;27;20317;-68
2022/08/28 05:08:51;;;;;;;5.75;2.13;;;;;;;16.77;71.86;101631.94;6314255;28;20666;-68
2022/08/28 05:12:16;;;;;;;7.63;1.95;;;;;;;16.71;72.09;101637.97;6300822;27;20230;-69
2022/08/28 05:15:38;;;;;;;2.85;1.40;;;;;;;16.85;71.59;101636.56;6316484;27;20285;-68
2022/08/28 05:19:00;;;;;;;9.55;3.63;;;;;;;16.90;71.82;101645.97;6329657;27;20225;-68
2022/08/28 05:22:23;;;;;;;4.10;2.25;;;;;;;16.91;71.84;101647.69;6323958;27;20225;-69
2022/08/28 05:25:46;;;;;;;8.77;2.25;;;;;;;17.03;71.10;101649.16;6306706;27;20253;-69
2022/08/28 05:29:08;;;;;;;3.78;1.83;;;;;;;16.87;71.47;101661.78;6320326;27;21836;-68
2022/08/28 05:32:29;;;;;;;3.65;1.80;;;;;;;17.01;71.31;101645.72;6317865;27;20245;-68
2022/08/28 05:35:51;;;;;;;3.13;2.38;;;;;;;17.08;70.66;101648.66;6321868;27;20233;-69
2022/08/28 05:39:13;;;;;;;4.72;2.22;;;;;;;17.21;69.91;101649.94;6326674;27;20333;-69
2022/08/28 05:42:34;;;;;;;2.22;1.55;;;;;;;17.23;70.20;101647.09;6319559;27;20221;-68
2022/08/28 05:45:58;;;;;;;3.25;1.95;;;;;;;17.31;69.54;101652.59;6325913;27;20222;-69
2022/08/28 05:49:19;;;;;;;11.32;3.30;;;;;;;17.32;69.47;101646.09;6321784;28;20686;-69
2022/08/28 05:52:41;;;;;;;2.30;1.58;;;;;;;17.43;69.47;101652.16;6325399;27;20225;-69
2022/08/28 05:56:05;;;;;;;5.68;3.80;;;;;;;17.63;68.84;101646.50;6328441;27;22863;-69
2022/08/28 05:59:25;;;;;;;6.10;2.30;;;;;;;17.66;68.15;101649.75;6334440;27;20376;-68
2022/08/28 06:02:46;;;;;;;4.68;1.20;;;;;;;17.69;68.07;101643.13;6327224;27;20233;-68
2022/08/28 06:06:08;;;;;;;4.32;1.70;;;;;;;17.54;68.56;101649.16;6320232;27;20221;-69
2022/08/28 06:09:30;;;;;;;4.07;1.92;;;;;;;17.81;67.71;101656.31;6327975;27;20218;-69
2022/08/28 06:12:52;;;;;;;3.40;1.35;;;;;;;17.61;67.62;101654.81;6328029;27;20477;-69
2022/08/28 06:16:13;;;;;;;2.85;1.70;;;;;;;17.68;67.56;101657.75;6331849;27;20333;-69
2022/08/28 06:19:36;;;;;;;3.85;2.85;;;;;;;17.71;67.45;101658.28;6316217;27;20223;-69
2022/08/28 06:22:57;;;;;;;2.47;2.20;;;;;;;18.11;66.45;101657.59;6323472;27;20329;-68
2022/08/28 06:26:18;;;;;;;7.45;1.83;;;;;;;18.49;65.43;101664.38;6323388;27;20253;-68
2022/08/28 06:29:40;;;;;;;3.58;1.55;;;;;;;18.47;64.85;101663.69;6300872;27;20223;-68
2022/08/28 06:33:02;;;;;;;5.25;2.38;;;;;;;18.69;64.18;101660.31;6321955;27;20226;-68
2022/08/28 06:36:23;;;;;;;3.30;2.53;;;;;;;18.66;64.12;101672.44;6333190;27;20222;-69
2022/08/28 06:39:44;;;;;;;3.85;1.63;;;;;;;18.70;63.02;101673.81;6321521;27;20241;-69
2022/08/28 06:43:05;;;;;;;3.50;1.27;;;;;;;18.41;64.37;101672.50;6307311;28;20218;-69
2022/08/28 06:46:29;;;;;;;7.80;2.03;;;;;;;18.52;63.87;101669.50;6305695;28;20230;-69
2022/08/28 06:49:50;;;;;;;1.20;1.10;;;;;;;18.60;63.41;101675.84;6300337;28;20231;-68
2022/08/28 06:53:14;;;;;;;9.70;1.52;;;;;;;18.82;63.57;101680.63;6295269;28;20219;-68
2022/08/28 06:56:35;;;;;;;3.67;2.80;;;;;;;19.10;62.12;101676.56;6296168;28;20620;-69
2022/08/28 06:59:58;;;;;;;4.05;1.20;;;;;;;19.14;61.68;101680.66;6281658;28;20315;-68
2022/08/28 07:03:20;;;;;;;5.90;1.92;;;;;;;19.17;61.74;101686.78;6316710;27;20230;-68
2022/08/28 07:06:44;;;;;;;3.95;1.83;;;;;;;19.17;61.64;101685.75;6302173;27;20219;-69
2022/08/28 07:10:06;;;;;;;1.90;1.35;;;;;;;19.24;61.07;101685.06;6299110;27;20227;-67
2022/08/28 07:13:26;;;;;;;1.77;1.35;;;;;;;19.43;60.97;101682.84;6280868;27;20247;-68
2022/08/28 07:16:47;;;;;;;1.60;1.33;;;;;;;19.56;60.03;101685.06;6322217;27;20249;-68
2022/08/28 07:20:11;;;;;;;4.07;1.20;;;;;;;19.62;59.13;101681.63;6314436;27;20682;-69
2022/08/28 07:23:34;;;;;;;6.38;5.78;;;;;;;19.69;60.73;101693.56;6313907;27;20231;-66
2022/08/28 07:26:55;;;;;;;29.02;18.40;;;;;;;20.12;58.39;101690.31;6306421;27;20218;-66
2022/08/28 07:30:16;;;;;;;65.50;59.67;;;;;;;20.10;57.53;101692.38;6304288;27;20231;-68
2022/08/28 07:33:38;;;;;;;228.15;168.32;;;;;;;20.49;56.80;101690.50;6308368;27;20229;-65
2022/08/28 07:37:03;;;;;;;509.10;455.75;;;;;;;20.83;57.26;101694.72;6305428;27;20230;-67
2022/08/28 07:40:24;;;;;;;218.82;196.52;;;;;;;20.64;55.28;101696.06;6298635;27;20551;-66
2022/08/28 07:47:29;;;;;;;81.45;73.00;;;;;;;20.81;52.99;101705.00;6271354;27;20227;-66
2022/08/28 07:50:50;;;;;;;7.28;6.38;;;;;;;20.39;53.73;101706.31;6306985;27;20262;-68
2022/08/28 07:54:13;;;;;;;3.25;1.50;;;;;;;20.55;53.93;101705.34;6298745;27;20226;-67
2022/08/28 07:57:34;;;;;;;3.13;1.98;;;;;;;20.66;53.62;101713.16;6294669;27;20241;-67
2022/08/28 08:00:55;;;;;;;2.97;2.08;;;;;;;20.59;52.40;101704.81;6286383;27;20230;-67
2022/08/28 08:04:18;;;;;;;3.40;1.67;;;;;;;20.79;51.56;101715.31;6258317;27;20230;-67
2022/08/28 08:07:39;;;;;;;2.47;1.27;;;;;;;20.91;51.70;101722.94;6247609;27;20767;-66
2022/08/28 08:11:04;;;;;;;5.53;1.30;;;;;;;20.80;52.60;101719.78;6299213;27;20230;-68
2022/08/28 08:14:25;;;;;;;4.57;1.70;;;;;;;20.84;52.29;101730.16;6286620;27;20231;-67
2022/08/28 08:17:46;;;;;;;2.65;1.10;;;;;;;20.79;52.59;101713.44;6271251;27;20258;-68
2022/08/28 08:21:10;;;;;;;1.85;1.08;;;;;;;20.69;53.08;101719.13;6286651;27;20835;-66
2022/08/28 08:24:32;;;;;;;2.25;1.40;;;;;;;20.69;52.58;101716.38;6289062;27;20526;-68
2022/08/28 08:27:54;;;;;;;1.90;1.38;;;;;;;20.68;52.21;101720.19;6277735;28;20238;-68
2022/08/28 08:31:17;;;;;;;2.53;1.70;;;;;;;20.66;52.01;101724.13;6271521;28;20231;-66
2022/08/28 08:34:39;;;;;;;4.25;1.27;;;;;;;20.66;51.85;101721.38;6297012;28;20346;-67
2022/08/28 08:38:00;;;;;;;2.22;2.05;;;;;;;20.86;51.59;101724.53;6291593;27;20743;-67
2022/08/28 08:41:25;;;;;;;2.75;1.33;;;;;;;21.04;51.38;101725.97;6297967;27;20234;-67
2022/08/28 08:44:49;;;;;;;2.40;1.20;;;;;;;21.51;50.33;101722.94;6313611;27;20235;-68
2022/08/28 08:48:21;;;;;;;2.85;1.40;;;;;;;21.16;50.78;101724.47;6292559;28;20235;-67
2022/08/28 08:51:46;;;;;;;3.25;2.00;;;;;;;21.35;50.07;101718.47;6268820;28;20223;-67
2022/08/28 08:55:24;;;;;;;1.67;1.20;;;;;;;21.69;49.96;101712.50;6277611;27;20618;-66
2022/08/28 08:58:50;;;;;;;4.90;1.98;;;;;;;21.57;51.93;101715.88;6283841;27;20233;-67
2022/08/28 09:02:16;;;;;;;1.90;1.35;;;;;;;21.64;49.79;101723.16;6285918;28;20229;-67
2022/08/28 09:05:48;;;;;;;3.25;1.58;;;;;;;22.08;49.22;101717.72;6277020;28;20226;-67
2022/08/28 09:09:17;;;;;;;9.85;1.80;;;;;;;22.13;48.17;101712.53;6278598;28;20226;-67
2022/08/28 09:12:50;;;;;;;1.95;1.58;;;;;;;22.04;48.39;101709.00;6301478;27;20226;-66
2022/08/28 09:16:20;;;;;;;3.88;2.33;;;;;;;22.02;50.09;101721.22;6297854;27;21006;-67
2022/08/28 09:19:42;;;;;;;3.65;1.40;;;;;;;21.37;50.76;101716.41;6299157;27;20230;-67
2022/08/28 09:23:03;;;;;;;6.45;1.77;;;;;;;21.44;50.64;101720.09;6307321;27;20260;-67
2022/08/28 09:26:25;;;;;;;1.10;1.00;;;;;;;21.70;50.90;101714.19;6301476;27;20225;-67
2022/08/28 09:29:55;;;;;;;5.13;1.58;;;;;;;21.58;49.36;101732.16;6287800;27;20225;-66
2022/08/28 09:33:28;;;;;;;1.98;1.10;;;;;;;21.69;50.46;101722.59;6279619;27;20221;-67
2022/08/28 09:36:51;;;;;;;9.65;1.10;;;;;;;22.51;48.46;101721.47;6284851;27;20252;-68
2022/08/28 09:40:17;;;;;;;2.38;1.48;;;;;;;22.22;46.76;101727.84;6288243;27;20587;-66
2022/08/28 09:43:38;;;;;;;2.35;1.17;;;;;;;22.10;47.43;101729.38;6288370;27;20504;-66
2022/08/28 09:46:59;;;;;;;2.90;1.30;;;;;;;22.91;46.43;101724.47;6277400;27;20238;-68
2022/08/28 09:50:34;;;;;;;5.80;2.42;;;;;;;22.56;47.29;101725.31;6278286;27;20243;-69
2022/08/28 09:54:06;;;;;;;4.07;1.63;;;;;;;22.41;48.55;101724.50;6293282;27;20234;-68
2022/08/28 09:57:27;;;;;;;5.07;2.15;;;;;;;22.08;49.88;101732.31;6265619;28;20227;-66
2022/08/28 10:00:52;;;;;;;2.67;1.15;;;;;;;21.96;48.57;101730.22;6279564;28;20283;-68
2022/08/28 10:04:31;;;;;;;4.40;1.48;;;;;;;22.24;49.67;101731.25;6296342;28;20328;-75
2022/08/28 10:07:58;;;;;;;5.68;2.30;;;;;;;23.06;46.73;101713.41;6277574;27;20218;-75
2022/08/28 10:11:28;;;;;;;2.33;0.98;;;;;;;22.08;49.97;101731.44;6238472;28;20314;-77
2022/08/28 10:14:56;;;;;;;4.53;1.13;;;;;;;22.08;49.89;101728.72;6272932;28;20229;-74
2022/08/28 10:18:43;;;;;;;5.70;2.80;;;;;;;22.78;48.37;101726.25;6267595;27;20233;-74
2022/08/28 10:22:18;;;;;;;2.33;1.80;;;;;;;22.78;47.33;101731.75;6281377;28;20249;-73
2022/08/28 10:25:48;;;;;;;2.25;1.50;;;;;;;23.02;46.79;101731.34;6275629;27;20238;-74
2022/08/28 10:29:23;;;;;;;6.43;1.25;;;;;;;22.94;46.53;101728.75;6299746;28;20499;-74
2022/08/28 10:33:07;;;;;;;1.67;1.20;;;;;;;22.02;47.64;101749.56;6303257;28;20226;-73
2022/08/28 10:36:30;;;;;;;2.25;1.10;;;;;;;22.38;46.89;101740.53;6304548;27;20394;-73
2022/08/28 10:39:54;;;;;;;1.27;1.17;;;;;;;22.65;46.59;101748.94;6310235;27;20269;-73
2022/08/28 10:43:23;;;;;;;5.00;1.50;;;;;;;22.39;47.56;101755.94;6270203;27;20817;-73
2022/08/28 10:46:50;;;;;;;9.00;2.15;;;;;;;21.38;50.22;101747.44;6263321;27;20222;-74
2022/08/28 10:50:17;;;;;;;3.08;1.83;;;;;;;21.03;50.15;101767.25;6276728;27;20501;-75
2022/08/28 10:53:42;;;;;;;2.58;1.40;;;;;;;20.53;51.44;101767.69;6301404;27;20226;-69
2022/08/28 10:57:10;;;;;;;3.55;1.40;;;;;;;21.00;51.62;101767.59;6299762;27;20309;-66
2022/08/28 11:00:34;;;;;;;1.30;1.20;;;;;;;21.39;51.72;101771.09;6259433;27;20222;-67
2022/08/28 11:04:00;;;;;;;3.53;1.48;;;;;;;21.33;51.54;101763.59;6254565;27;20732;-67
2022/08/28 11:07:27;;;;;;;3.03;1.98;;;;;;;21.43;50.58;101758.69;6256846;27;22201;-68
2022/08/28 11:10:50;;;;;;;2.35;1.58;;;;;;;21.18;50.76;101762.69;6254464;27;20227;-67
2022/08/28 11:14:24;;;;;;;3.58;2.45;;;;;;;21.56;50.72;101766.31;6265857;27;20226;-67
2022/08/28 11:17:45;;;;;;;1.77;1.33;;;;;;;21.77;49.52;101756.31;6288516;27;20281;-67
2022/08/28 11:21:15;;;;;;;1.77;1.65;;;;;;;22.37;47.76;101752.53;6299934;27;20722;-66
2022/08/28 11:24:53;;;;;;;3.22;1.98;;;;;;;22.96;46.12;101757.75;6269086;27;20234;-68
2022/08/28 11:28:21;;;;;;;5.25;1.52;;;;;;;23.89;43.21;101752.03;6314069;27;20663;-67
2022/08/28 11:31:42;;;;;;;4.15;1.95;;;;;;;24.61;42.29;101752.44;6308226;27;20341;-67
2022/08/28 11:35:06;;;;;;;3.53;1.85;;;;;;;23.80;43.00;101756.84;6306107;27;20256;-68
2022/08/28 11:39:13;;;;;;;5.43;2.53;;;;;;;23.16;44.94;101748.84;6284386;27;20226;-68
2022/08/28 11:42:37;;;;;;;6.90;1.85;;;;;;;23.20;44.60;101737.22;6288072;27;20663;-67
2022/08/28 11:46:26;;;;;;;4.00;2.03;;;;;;;25.72;36.26;101746.31;6280153;27;20845;-68
2022/08/28 11:49:46;;;;;;;4.07;1.38;;;;;;;25.91;37.05;101750.97;6308498;27;20226;-66
2022/08/28 11:53:44;;;;;;;2.35;1.67;;;;;;;28.85;32.40;101748.75;6293431;27;20234;-67
2022/08/28 11:57:10;;;;;;;3.53;1.40;;;;;;;26.16;34.72;101753.91;6317529;27;20233;-67
2022/08/28 12:00:49;;;;;;;3.72;1.90;;;;;;;24.39;39.40;101756.38;6311801;27;20716;-67
2022/08/28 12:04:13;;;;;;;4.28;1.48;;;;;;;23.02;43.33;101767.13;6318153;27;20651;-67
2022/08/28 12:07:34;;;;;;;7.10;1.85;;;;;;;22.98;43.70;101755.66;6328039;27;20348;-67
2022/08/28 12:10:58;;;;;;;2.30;1.52;;;;;;;23.11;42.92;101762.34;6330416;27;20234;-67
2022/08/28 12:15:02;;;;;;;5.05;2.45;;;;;;;25.28;38.06;101747.72;6300691;27;20234;-67
2022/08/28 12:18:53;;;;;;;3.90;1.60;;;;;;;24.36;39.93;101745.75;6309744;27;20222;-67
2022/08/28 12:22:20;;;;;;;4.90;1.58;;;;;;;29.17;31.74;101741.06;6295648;27;20314;-66
2022/08/28 12:25:43;;;;;;;7.43;2.90;;;;;;;31.61;28.00;101752.59;6328382;27;20616;-67
2022/08/28 12:29:07;;;;;;;2.78;1.40;;;;;;;31.61;27.34;101733.06;6322921;27;20230;-67
2022/08/28 12:32:36;;;;;;;2.63;1.50;;;;;;;26.96;35.41;101733.97;6310894;27;20234;-66
2022/08/28 12:36:02;;;;;;;5.60;2.50;;;;;;;26.00;37.38;101739.44;6326652;27;20452;-67
2022/08/28 12:39:24;;;;;;;3.45;1.50;;;;;;;27.39;34.43;101743.31;6328616;27;20225;-66
2022/08/28 12:42:49;;;;;;;2.28;1.50;;;;;;;27.04;35.37;101742.00;6316884;27;20507;-68
2022/08/28 12:46:13;;;;;;;3.22;2.55;;;;;;;30.83;28.78;101744.16;6320348;27;20905;-67
2022/08/28 12:49:37;;;;;;;4.80;1.77;;;;;;;25.89;35.88;101739.25;6328404;27;20591;-67
2022/08/28 12:53:05;;;;;;;2.05;1.52;;;;;;;24.56;40.56;101753.06;6326389;27;20521;-66
2022/08/28 12:56:29;;;;;;;3.20;1.80;;;;;;;23.02;44.08;101751.47;6332916;27;20323;-67
2022/08/28 12:59:52;;;;;;;2.20;1.48;;;;;;;23.11;45.07;101762.34;6329510;27;20384;-67
2022/08/28 13:03:13;;;;;;;4.25;1.38;;;;;;;26.11;39.18;101768.38;6336088;27;20552;-67
2022/08/28 13:06:37;;;;;;;2.83;1.90;;;;;;;25.81;39.74;101743.09;6326344;27;20247;-72
2022/08/28 13:10:02;;;;;;;6.07;2.17;;;;;;;23.36;44.90;101752.66;6332272;27;20226;-72
2022/08/28 13:13:33;;;;;;;4.20;1.95;;;;;;;23.02;45.56;101751.47;6304544;27;20230;-72
2022/08/28 13:16:55;;;;;;;5.97;3.05;;;;;;;22.37;46.65;101749.78;6292732;27;20258;-72
2022/08/28 13:20:35;;;;;;;2.33;1.83;;;;;;;23.03;45.73;101769.66;6277956;27;20258;-72
2022/08/28 13:23:58;;;;;;;4.70;1.63;;;;;;;25.71;39.88;101748.22;6295556;27;20234;-72
2022/08/28 13:27:23;;;;;;;4.28;1.80;;;;;;;24.73;41.72;101750.78;6569807;22;21206;-73
2022/08/28 13:30:57;;;;;;;3.13;1.63;;;;;;;24.35;42.60;101744.91;6218570;28;20715;-73
2022/08/28 13:34:24;;;;;;;4.65;1.75;;;;;;;24.02;43.13;101748.50;6217280;28;20236;-72
2022/08/28 13:37:47;;;;;;;2.88;1.40;;;;;;;23.31;44.41;101741.34;6213490;28;20233;-72
2022/08/28 13:41:11;;;;;;;5.43;1.90;;;;;;;23.21;44.74;101758.22;6207789;28;20328;-72
2022/08/28 13:44:33;;;;;;;2.83;1.95;;;;;;;22.65;45.65;101748.09;6188122;28;20237;-71
2022/08/28 13:47:56;;;;;;;5.35;2.22;;;;;;;22.44;46.49;101750.75;6192615;28;20233;-72
2022/08/28 13:51:17;;;;;;;4.80;1.80;;;;;;;22.37;45.93;101747.91;6192351;28;20538;-71
2022/08/28 13:54:39;;;;;;;4.85;2.17;;;;;;;22.54;45.61;101748.53;6206951;28;20232;-72
2022/08/28 13:58:00;;;;;;;3.72;1.85;;;;;;;22.40;46.64;101750.28;6210617;28;20240;-72
2022/08/28 14:03:34;;;;;;;3.28;1.30;;;;;;;22.61;44.71;101753.09;6214931;28;20228;-71
2022/08/28 14:05:06;;;;;;;2.00;1.38;;;;;;;22.86;43.88;101737.94;6209055;28;20316;-72
2022/08/28 14:08:27;;;;;;;4.90;2.10;;;;;;;23.16;43.25;101746.94;6198538;28;20304;-72
2022/08/28 14:11:49;;;;;;;6.50;1.38;;;;;;;22.92;43.02;101739.94;6199269;28;20610;-71
2022/08/28 14:15:10;;;;;;;5.25;2.08;;;;;;;22.56;43.19;101743.69;6208851;28;20225;-71
2022/08/28 14:18:32;;;;;;;2.05;1.20;;;;;;;22.41;44.52;101738.22;6208285;28;20252;-72
2022/08/28 14:21:55;;;;;;;2.85;1.95;;;;;;;22.48;44.96;101746.56;6216870;28;20228;-71
2022/08/28 14:25:16;;;;;;;2.60;1.55;;;;;;;22.38;44.87;101752.38;6233058;28;20712;-72
2022/08/28 14:28:37;;;;;;;7.22;2.35;;;;;;;22.72;44.75;101749.84;6235095;28;20479;-72
2022/08/28 14:32:00;;;;;;;3.55;1.70;;;;;;;22.50;45.09;101741.72;6229177;28;20629;-72
2022/08/28 14:35:21;;;;;;;1.95;1.85;;;;;;;22.36;45.55;101740.72;6231347;28;20236;-72
2022/08/28 14:38:44;;;;;;;2.88;1.48;;;;;;;22.35;44.01;101746.38;6200375;28;20521;-72
2022/08/28 14:42:05;;;;;;;3.33;2.78;;;;;;;22.20;43.99;101739.03;6214351;28;20214;-71
2022/08/28 14:45:26;;;;;;;2.53;1.30;;;;;;;22.49;46.29;101740.88;6209745;28;20389;-72
2022/08/28 14:48:48;;;;;;;7.10;1.88;;;;;;;22.60;44.97;101739.56;6206617;28;20821;-71
2022/08/28 14:52:08;;;;;;;4.72;1.63;;;;;;;22.49;45.49;101737.28;6199339;28;20218;-72
2022/08/28 14:55:31;;;;;;;5.65;2.15;;;;;;;22.44;43.98;101732.38;6211171;28;20286;-72
2022/08/28 14:58:51;;;;;;;3.78;1.50;;;;;;;22.66;44.42;101734.13;6211008;28;20324;-71
2022/08/28 15:02:13;;;;;;;4.53;2.38;;;;;;;22.62;44.00;101742.97;6200813;28;20237;-71
2022/08/28 15:05:34;;;;;;;4.55;1.73;;;;;;;22.49;44.24;101748.28;6223906;28;20228;-72
2022/08/28 15:08:55;;;;;;;3.33;1.67;;;;;;;22.12;45.80;101758.34;6231183;28;20232;-72
2022/08/28 15:12:18;;;;;;;3.88;2.25;;;;;;;22.30;46.15;101748.88;6226071;28;20245;-71
2022/08/28 15:15:41;;;;;;;3.03;1.35;;;;;;;21.95;47.67;101753.22;6225757;28;20229;-71
2022/08/28 15:19:03;;;;;;;4.30;1.90;;;;;;;22.19;47.50;101748.31;6224118;28;20646;-72
2022/08/28 15:22:23;;;;;;;3.63;1.65;;;;;;;21.87;48.59;101748.69;6229205;28;20303;-72
2022/08/28 15:25:44;;;;;;;3.25;1.92;;;;;;;22.05;48.73;101757.41;6220126;28;20229;-73
2022/08/28 15:29:07;;;;;;;4.45;3.35;;;;;;;22.20;48.35;101750.00;6224114;28;20311;-72
2022/08/28 15:32:28;;;;;;;2.85;1.45;;;;;;;21.95;48.92;101761.47;6228390;28;20311;-72
2022/08/28 15:35:48;;;;;;;2.83;1.40;;;;;;;21.86;49.63;101766.19;6225804;28;20332;-72
2022/08/28 15:42:48;;;;;;;4.55;2.58;;;;;;;21.85;50.85;101761.75;6203947;28;20610;-67
2022/08/28 15:46:12;;;;;;;17.05;12.48;;;;;;;21.80;51.09;101766.09;6193012;28;20226;-66
2022/08/28 15:49:35;;;;;;;112.85;100.55;;;;;;;21.44;50.86;101761.25;6190897;28;20232;-67
2022/08/28 15:52:56;;;;;;;443.48;387.05;;;;;;;22.10;51.71;101771.44;6193556;28;20807;-65
2022/08/28 15:56:17;;;;;;;494.42;415.30;;;;;;;22.68;49.38;101755.94;6182019;28;20226;-67